Time;durP1;ratioP1;P1;durP2;ratioP2;P2;SDS_P1;SDS_P2;PMS_P1;PMS_P2;Temp;Humidity;BMP_temperature;BMP_pressure;BME280_temperature;BME280_humidity;BME280_pressure;Samples;Min_cycle;Max_cycle;Signal;HPM_P1;HPM_P2
2024/04/26 00:00:45;;;;;;;28.60;17.10;;;;;;;2.83;64.23;99514.07;131032;1251;106974;-77
2024/04/26 00:04:10;;;;;;;31.00;17.00;;;;;;;2.81;64.23;99519.65;131024;1254;109014;-76
2024/04/26 00:07:15;;;;;;;30.30;18.00;;;;;;;2.81;64.22;99514.57;131017;1251;107366;-77
2024/04/26 00:10:20;;;;;;;28.20;16.50;;;;;;;2.80;64.19;99516.29;131088;1253;108714;-77
2024/04/26 00:13:26;;;;;;;31.20;17.30;;;;;;;2.78;64.21;99520.64;131185;1253;108590;-77
2024/04/26 00:16:31;;;;;;;30.90;17.30;;;;;;;2.76;64.23;99519.18;131313;1254;107648;-77
2024/04/26 00:19:36;;;;;;;31.90;16.80;;;;;;;2.74;64.19;99524.05;131309;1262;106739;-77
2024/04/26 00:22:41;;;;;;;30.00;16.20;;;;;;;2.73;64.32;99521.16;131176;1253;106497;-78
2024/04/26 00:25:46;;;;;;;31.10;17.50;;;;;;;2.69;64.07;99520.04;131027;1254;108378;-76
2024/04/26 00:28:51;;;;;;;30.20;17.10;;;;;;;2.65;64.20;99521.08;131096;1251;106403;-77
2024/04/26 00:31:56;;;;;;;27.60;16.10;;;;;;;2.63;64.19;99519.19;131066;1258;106415;-77
2024/04/26 00:35:01;;;;;;;26.50;15.30;;;;;;;2.60;64.19;99518.02;130974;1254;108706;-77
2024/04/26 00:38:06;;;;;;;30.70;16.30;;;;;;;2.56;64.41;99516.86;131160;1252;106556;-77
2024/04/26 00:41:11;;;;;;;24.50;14.70;;;;;;;2.52;64.30;99519.09;130984;1254;107742;-76
2024/04/26 00:44:17;;;;;;;22.60;14.00;;;;;;;2.51;64.32;99519.23;130953;1251;107546;-77
2024/04/26 00:47:23;;;;;;;25.80;14.80;;;;;;;2.48;64.40;99521.70;131011;1251;107873;-77
2024/04/26 00:50:28;;;;;;;25.30;14.80;;;;;;;2.43;64.38;99522.27;131007;1251;107830;-77
2024/04/26 00:53:33;;;;;;;22.00;13.50;;;;;;;2.42;64.46;99521.35;130993;1254;106941;-78
2024/04/26 00:56:39;;;;;;;26.30;14.30;;;;;;;2.41;64.56;99520.36;131024;1251;108515;-77
2024/04/26 00:59:44;;;;;;;21.80;13.50;;;;;;;2.36;64.54;99524.39;130896;1251;158046;-77
2024/04/26 01:02:51;;;;;;;20.50;13.20;;;;;;;2.33;64.47;99527.21;130992;1254;107715;-78
2024/04/26 01:05:56;;;;;;;21.80;12.90;;;;;;;2.30;64.50;99530.62;131094;1251;106420;-77
2024/04/26 01:09:01;;;;;;;22.40;13.40;;;;;;;2.29;64.57;99528.27;131133;1251;107672;-77
2024/04/26 01:12:07;;;;;;;23.20;13.30;;;;;;;2.29;64.67;99531.05;131302;1253;107078;-77
2024/04/26 01:15:12;;;;;;;24.30;13.00;;;;;;;2.31;64.79;99532.35;131244;1254;108797;-77
2024/04/26 01:18:17;;;;;;;17.40;10.50;;;;;;;2.37;64.70;99525.91;131195;1253;108056;-77
2024/04/26 01:21:22;;;;;;;20.90;12.00;;;;;;;2.42;64.69;99526.39;130961;1251;108400;-77
2024/04/26 01:24:27;;;;;;;20.90;12.30;;;;;;;2.47;64.74;99525.98;130986;1254;108750;-77
2024/04/26 01:27:32;;;;;;;24.40;12.80;;;;;;;2.51;64.61;99525.86;131004;1256;106897;-77
2024/04/26 01:30:37;;;;;;;21.70;11.90;;;;;;;2.55;64.60;99534.51;130956;1251;107845;-78
2024/04/26 01:33:42;;;;;;;24.50;13.60;;;;;;;2.53;64.46;99535.39;130969;1251;108538;-77
2024/04/26 01:36:47;;;;;;;23.30;13.00;;;;;;;2.50;64.57;99532.30;130921;1254;108659;-77
2024/04/26 01:39:52;;;;;;;25.90;13.80;;;;;;;2.52;64.64;99533.52;131081;1251;107042;-77
2024/04/26 01:42:57;;;;;;;19.00;12.10;;;;;;;2.49;64.50;99535.02;131173;1266;107182;-79
2024/04/26 01:46:02;;;;;;;19.90;12.00;;;;;;;2.41;64.66;99539.87;131060;1251;106734;-77
2024/04/26 01:49:07;;;;;;;20.50;12.30;;;;;;;2.37;64.85;99543.64;131165;1254;107633;-77
2024/04/26 01:52:12;;;;;;;20.60;12.00;;;;;;;2.33;65.06;99542.85;131149;1251;108732;-77
2024/04/26 01:55:17;;;;;;;21.00;11.80;;;;;;;2.30;65.02;99541.02;131105;1250;108543;-77
2024/04/26 01:58:24;;;;;;;18.30;11.90;;;;;;;2.27;65.04;99548.07;131226;1251;106568;-77
2024/04/26 02:01:32;;;;;;;17.80;11.60;;;;;;;2.23;65.09;99550.66;131161;1251;107061;-77
2024/04/26 02:04:36;;;;;;;18.20;11.00;;;;;;;2.19;64.89;99551.14;131153;1252;107737;-76
2024/04/26 02:07:43;;;;;;;19.70;11.40;;;;;;;2.12;65.02;99550.80;131340;1254;107307;-77
2024/04/26 02:10:48;;;;;;;17.60;11.40;;;;;;;2.10;64.99;99555.86;131268;1254;107730;-78
2024/04/26 02:13:53;;;;;;;17.70;11.20;;;;;;;2.07;65.23;99563.29;131215;1257;108587;-77
2024/04/26 02:16:58;;;;;;;19.00;11.20;;;;;;;2.07;65.18;99562.62;131106;1251;108455;-77
2024/04/26 02:20:04;;;;;;;18.90;11.10;;;;;;;2.04;65.20;99564.02;131177;1257;107394;-77
2024/04/26 02:23:09;;;;;;;20.80;11.70;;;;;;;2.00;65.12;99566.79;131118;1254;106116;-77
2024/04/26 02:26:19;;;;;;;18.10;10.50;;;;;;;1.95;65.13;99573.13;131515;1254;108402;-77
2024/04/26 02:29:24;;;;;;;17.50;10.60;;;;;;;1.89;65.03;99576.17;131212;1264;106156;-76
2024/04/26 02:32:29;;;;;;;17.50;10.60;;;;;;;1.84;65.13;99573.81;131404;1250;106409;-81
2024/04/26 02:35:34;;;;;;;19.20;10.80;;;;;;;1.81;65.33;99576.60;131382;1250;107757;-81
2024/04/26 02:38:40;;;;;;;18.80;11.30;;;;;;;1.79;65.19;99577.99;131783;1254;108319;-81
2024/04/26 02:41:45;;;;;;;18.00;11.50;;;;;;;1.77;65.45;99578.82;131829;1251;106798;-81
2024/04/26 02:44:50;;;;;;;17.60;10.60;;;;;;;1.77;65.36;99583.92;131672;1254;108972;-79
2024/04/26 02:47:55;;;;;;;17.60;10.50;;;;;;;1.76;65.36;99585.90;134378;1251;106623;-80
2024/04/26 02:51:00;;;;;;;16.60;10.20;;;;;;;1.80;65.54;99593.16;135174;1250;108677;-80
2024/04/26 02:54:05;;;;;;;20.50;11.30;;;;;;;1.82;65.65;99594.11;132332;1251;107637;-79
2024/04/26 02:57:11;;;;;;;21.00;11.70;;;;;;;1.83;65.58;99593.83;130983;1251;107814;-79
2024/04/26 03:00:17;;;;;;;22.60;12.50;;;;;;;1.81;65.55;99593.44;131003;1251;106530;-79
2024/04/26 03:03:22;;;;;;;19.10;11.30;;;;;;;1.80;65.70;99592.49;131035;1253;107965;-79
2024/04/26 03:06:27;;;;;;;18.10;11.80;;;;;;;1.79;65.71;99595.54;131081;1253;109691;-79
2024/04/26 03:09:32;;;;;;;19.70;10.30;;;;;;;1.78;65.89;99595.05;131035;1253;105639;-79
2024/04/26 03:12:37;;;;;;;15.20;9.80;;;;;;;1.81;65.89;99591.04;130994;1251;107370;-79
2024/04/26 03:15:42;;;;;;;17.10;9.80;;;;;;;1.81;66.02;99589.27;131025;1253;108414;-79
2024/04/26 03:18:48;;;;;;;14.70;8.80;;;;;;;1.84;65.94;99587.64;131151;1251;108745;-79
2024/04/26 03:21:54;;;;;;;16.40;9.80;;;;;;;1.90;65.96;99589.47;131040;1251;108506;-79
2024/04/26 03:24:59;;;;;;;14.10;9.20;;;;;;;1.99;65.85;99588.32;131026;1251;108546;-79
2024/04/26 03:28:04;;;;;;;16.90;9.80;;;;;;;2.03;65.73;99586.39;131103;1253;105440;-79
2024/04/26 03:31:09;;;;;;;17.20;10.30;;;;;;;2.07;65.58;99585.37;131292;1257;109090;-79
2024/04/26 03:34:14;;;;;;;18.00;10.10;;;;;;;2.07;65.61;99593.81;131238;1253;106617;-79
2024/04/26 03:37:19;;;;;;;17.80;10.20;;;;;;;2.08;65.70;99594.28;131212;1254;107803;-79
2024/04/26 03:40:24;;;;;;;16.70;10.60;;;;;;;2.10;65.70;99594.09;131070;1269;106249;-79
2024/04/26 03:43:29;;;;;;;16.10;10.40;;;;;;;2.15;65.77;99596.58;131259;1266;108387;-80
2024/04/26 03:46:34;;;;;;;16.70;10.10;;;;;;;2.14;65.69;99598.52;131274;1254;108716;-80
2024/04/26 03:49:39;;;;;;;17.90;10.10;;;;;;;2.10;65.69;99606.05;131312;1251;108617;-79
2024/04/26 03:52:44;;;;;;;16.80;10.10;;;;;;;2.12;65.86;99608.88;131323;1253;108203;-80
2024/04/26 03:55:49;;;;;;;22.10;13.10;;;;;;;2.16;65.84;99612.09;131125;1253;107788;-79
2024/04/26 03:58:54;;;;;;;21.30;13.20;;;;;;;2.12;65.96;99618.36;131225;1251;107073;-80
2024/04/26 04:01:59;;;;;;;24.20;16.50;;;;;;;2.10;66.12;99616.73;131150;1251;107485;-80
2024/04/26 04:05:04;;;;;;;23.00;15.20;;;;;;;2.15;66.10;99618.81;131296;1254;106891;-79
2024/04/26 04:08:11;;;;;;;20.50;12.10;;;;;;;2.19;66.11;99619.76;131286;1253;108830;-79
2024/04/26 04:11:17;;;;;;;18.80;11.60;;;;;;;2.24;66.26;99616.73;130997;1254;107678;-79
2024/04/26 04:14:22;;;;;;;20.30;12.80;;;;;;;2.27;66.26;99617.73;131046;1251;107306;-79
2024/04/26 04:17:27;;;;;;;18.10;11.70;;;;;;;2.30;66.52;99612.23;131190;1253;107974;-77
2024/04/26 04:20:32;;;;;;;15.90;11.10;;;;;;;2.38;66.69;99612.55;131032;1251;107745;-79
2024/04/26 04:23:37;;;;;;;29.40;18.80;;;;;;;2.43;66.87;99613.38;131048;1253;106715;-78
2024/04/26 04:26:42;;;;;;;31.70;19.60;;;;;;;2.45;66.76;99620.94;131281;1251;107586;-72
2024/04/26 04:29:47;;;;;;;24.80;15.10;;;;;;;2.57;67.16;99623.75;131414;1250;107694;-72
2024/04/26 04:32:52;;;;;;;23.90;13.80;;;;;;;2.79;67.34;99622.95;131350;1251;107277;-72
2024/04/26 04:35:57;;;;;;;33.00;16.90;;;;;;;3.05;67.94;99626.89;131244;1253;106359;-73
2024/04/26 04:39:02;;;;;;;21.90;13.00;;;;;;;3.34;68.29;99630.41;131325;1251;106326;-73
2024/04/26 04:42:07;;;;;;;25.40;12.50;;;;;;;3.68;68.44;99634.14;131285;1253;107315;-72
2024/04/26 04:45:12;;;;;;;23.50;13.30;;;;;;;4.06;68.46;99633.73;130956;1249;108805;-73
2024/04/26 04:48:17;;;;;;;21.80;12.80;;;;;;;4.43;68.62;99633.98;131089;1253;108344;-72
2024/04/26 04:51:22;;;;;;;16.80;10.50;;;;;;;4.77;68.81;99632.01;131077;1251;108767;-73
2024/04/26 04:54:27;;;;;;;16.20;11.00;;;;;;;5.05;68.92;99635.79;131240;1258;108778;-73
2024/04/26 04:57:32;;;;;;;16.10;11.70;;;;;;;5.31;68.86;99640.38;130981;1253;108650;-73
2024/04/26 05:00:37;;;;;;;14.90;10.70;;;;;;;5.56;68.94;99640.67;131052;1253;107630;-73
2024/04/26 05:03:42;;;;;;;17.50;10.90;;;;;;;5.78;69.02;99639.02;131172;1250;107696;-71
2024/04/26 05:06:47;;;;;;;15.00;10.50;;;;;;;6.00;68.99;99640.50;130986;1251;107401;-73
2024/04/26 05:09:52;;;;;;;16.00;11.00;;;;;;;6.18;69.13;99643.30;131265;1253;105541;-73
2024/04/26 05:12:57;;;;;;;18.70;11.50;;;;;;;6.31;68.85;99642.40;131085;1250;108117;-73
2024/04/26 05:16:02;;;;;;;14.90;10.10;;;;;;;6.43;68.99;99642.73;131049;1264;106728;-72
2024/04/26 05:19:07;;;;;;;15.60;10.00;;;;;;;6.56;69.26;99650.88;130946;1255;106531;-74
2024/04/26 05:22:12;;;;;;;16.60;10.30;;;;;;;6.71;69.25;99658.73;130956;1250;107180;-73
2024/04/26 05:25:18;;;;;;;16.40;11.00;;;;;;;6.84;69.21;99658.92;130982;1257;107177;-73
2024/04/26 05:28:23;;;;;;;22.70;12.10;;;;;;;6.98;69.02;99661.16;130985;1251;107233;-72
2024/04/26 05:31:28;;;;;;;13.70;9.40;;;;;;;7.08;69.06;99667.42;130994;1254;107426;-74
2024/04/26 05:34:33;;;;;;;14.00;8.50;;;;;;;7.19;69.08;99666.05;131138;1254;108838;-72
2024/04/26 05:37:38;;;;;;;13.50;9.70;;;;;;;7.26;68.87;99665.39;131037;1256;108551;-73
2024/04/26 05:40:44;;;;;;;17.20;9.30;;;;;;;7.38;68.68;99670.41;131013;1251;107368;-72
2024/04/26 05:43:50;;;;;;;13.10;9.90;;;;;;;7.52;68.50;99669.52;131001;1254;105728;-73
2024/04/26 05:46:55;;;;;;;14.00;9.70;;;;;;;7.64;68.78;99670.39;130934;1254;108701;-73
2024/04/26 05:50:00;;;;;;;14.30;9.70;;;;;;;7.78;68.51;99674.95;131071;1254;108760;-74
2024/04/26 05:53:09;;;;;;;14.80;10.00;;;;;;;7.82;68.41;99676.61;130962;1251;107668;-74
2024/04/26 05:56:14;;;;;;;13.50;9.20;;;;;;;7.86;68.13;99680.36;132593;1251;107653;-73
2024/04/26 05:59:19;;;;;;;14.60;9.30;;;;;;;7.90;68.00;99682.09;131144;1254;107508;-74
2024/04/26 06:02:24;;;;;;;53.20;24.60;;;;;;;7.93;68.03;99683.39;130943;1250;106517;-73
2024/04/26 06:05:32;;;;;;;26.70;15.30;;;;;;;7.97;67.95;99687.45;131274;1251;107233;-73
2024/04/26 06:08:37;;;;;;;25.40;15.60;;;;;;;7.96;68.13;99682.55;131235;1252;108434;-74
2024/04/26 06:11:43;;;;;;;21.20;13.90;;;;;;;8.00;68.02;99682.73;131257;1253;106793;-73
2024/04/26 06:14:48;;;;;;;22.60;13.40;;;;;;;8.05;68.10;99683.67;131099;1253;108654;-74
2024/04/26 06:17:53;;;;;;;18.30;11.80;;;;;;;8.10;67.95;99685.98;131097;1254;108520;-73
2024/04/26 06:20:58;;;;;;;18.80;12.10;;;;;;;8.14;67.85;99684.38;130799;1256;108622;-73
2024/04/26 06:24:03;;;;;;;25.30;17.30;;;;;;;8.17;68.09;99687.73;131010;1250;107976;-73
2024/04/26 06:27:08;;;;;;;15.90;10.20;;;;;;;8.24;67.87;99686.02;130987;1253;105705;-73
2024/04/26 06:30:13;;;;;;;112.60;42.10;;;;;;;8.31;67.96;99686.56;130940;1253;107903;-74
2024/04/26 06:33:18;;;;;;;25.80;13.00;;;;;;;8.39;68.24;99688.25;131149;1253;108711;-74
2024/04/26 06:36:23;;;;;;;57.90;23.80;;;;;;;8.47;68.10;99686.11;131225;1251;106958;-74
2024/04/26 06:39:29;;;;;;;42.70;19.10;;;;;;;8.56;68.13;99688.94;131026;1251;106712;-74
2024/04/26 06:42:34;;;;;;;42.30;17.40;;;;;;;8.63;68.07;99690.80;131207;1251;106750;-73
2024/04/26 06:45:39;;;;;;;18.30;10.50;;;;;;;8.72;68.08;99689.59;131183;1251;106588;-73
2024/04/26 06:48:44;;;;;;;154.40;48.80;;;;;;;8.80;67.77;99693.91;131153;1253;107256;-74
2024/04/26 06:51:49;;;;;;;31.30;14.50;;;;;;;8.87;67.80;99696.38;131285;1254;107471;-73
2024/04/26 06:54:54;;;;;;;32.80;15.10;;;;;;;8.98;67.86;99698.85;131226;1253;106916;-74
2024/04/26 06:58:00;;;;;;;275.90;91.00;;;;;;;9.09;67.64;99696.73;131232;1253;108765;-73
2024/04/26 07:01:05;;;;;;;512.00;182.70;;;;;;;9.17;67.47;99699.73;131262;1251;108116;-73
2024/04/26 07:04:10;;;;;;;74.00;27.40;;;;;;;9.29;67.69;99701.70;131240;1254;108406;-75
2024/04/26 07:07:15;;;;;;;29.10;13.70;;;;;;;9.39;67.59;99700.30;130980;1251;106665;-74
2024/04/26 07:10:20;;;;;;;22.10;11.60;;;;;;;9.49;67.52;99701.93;131217;1254;107024;-74
2024/04/26 07:13:26;;;;;;;15.60;10.10;;;;;;;9.58;67.44;99699.77;131159;1250;107081;-74
2024/04/26 07:16:31;;;;;;;39.30;21.40;;;;;;;9.66;67.08;99702.14;131219;1253;106693;-74
2024/04/26 07:19:39;;;;;;;58.40;24.90;;;;;;;9.75;67.27;99698.53;131015;1250;106757;-74
2024/04/26 07:22:44;;;;;;;141.80;48.90;;;;;;;9.85;67.28;99700.50;131241;1253;107789;-74
2024/04/26 07:25:49;;;;;;;38.70;18.70;;;;;;;9.96;66.91;99706.47;131201;1253;108725;-74
2024/04/26 07:28:54;;;;;;;23.00;13.00;;;;;;;10.06;66.49;99701.11;131116;1253;108337;-74
2024/04/26 07:31:59;;;;;;;346.20;102.90;;;;;;;10.16;66.41;99701.77;131173;1251;109461;-74
2024/04/26 07:35:05;;;;;;;234.60;77.60;;;;;;;10.28;66.49;99704.87;131033;1251;108649;-74
2024/04/26 07:38:10;;;;;;;42.60;20.10;;;;;;;10.37;66.40;99706.22;131152;1251;108473;-75
2024/04/26 07:41:15;;;;;;;48.90;27.40;;;;;;;10.47;66.63;99708.38;130982;1253;109549;-75
2024/04/26 07:44:20;;;;;;;39.40;19.00;;;;;;;10.58;66.44;99712.52;131137;1253;108934;-75
2024/04/26 07:47:26;;;;;;;18.00;10.20;;;;;;;10.64;65.62;99710.17;130949;1250;108610;-75
2024/04/26 07:50:31;;;;;;;14.90;9.20;;;;;;;10.73;65.77;99703.45;130951;1254;108620;-74
2024/04/26 07:53:36;;;;;;;45.40;21.90;;;;;;;10.80;65.61;99706.36;130981;1253;107565;-75
2024/04/26 07:56:41;;;;;;;36.90;19.50;;;;;;;10.91;65.67;99702.83;131147;1252;106763;-75
2024/04/26 07:59:46;;;;;;;19.20;10.80;;;;;;;11.03;65.31;99703.50;131025;1253;107525;-74
2024/04/26 08:02:51;;;;;;;24.10;13.60;;;;;;;11.13;65.47;99707.16;131233;1253;108448;-75
2024/04/26 08:05:56;;;;;;;16.20;9.90;;;;;;;11.21;64.62;99709.15;131254;1250;106560;-75
2024/04/26 08:09:01;;;;;;;8.40;6.50;;;;;;;11.26;64.26;99710.60;131227;1251;107453;-74
2024/04/26 08:12:07;;;;;;;11.80;7.30;;;;;;;11.33;64.52;99712.98;130951;1253;107773;-75
2024/04/26 08:15:12;;;;;;;9.90;6.70;;;;;;;11.42;64.00;99714.27;130926;1251;108684;-75
2024/04/26 08:18:17;;;;;;;6.80;5.60;;;;;;;11.50;63.95;99709.26;130949;1251;108358;-75
2024/04/26 08:21:22;;;;;;;11.30;8.10;;;;;;;11.59;63.48;99711.46;130951;1251;107402;-74
2024/04/26 08:24:27;;;;;;;11.50;8.80;;;;;;;11.66;63.50;99709.50;130972;1251;106970;-75
2024/04/26 08:27:32;;;;;;;11.70;8.60;;;;;;;11.74;63.21;99709.73;130950;1251;106536;-74
2024/04/26 08:30:37;;;;;;;10.40;7.20;;;;;;;11.81;62.88;99707.55;131000;1251;106802;-75
2024/04/26 08:33:42;;;;;;;10.80;7.70;;;;;;;11.88;63.11;99708.73;131095;1254;108124;-74
2024/04/26 08:36:47;;;;;;;8.40;5.90;;;;;;;11.98;62.86;99712.78;131184;1250;108673;-75
2024/04/26 08:39:52;;;;;;;8.50;6.40;;;;;;;12.07;62.69;99712.71;131028;1253;107712;-74
2024/04/26 08:42:59;;;;;;;10.50;8.00;;;;;;;12.14;62.25;99713.30;131185;1253;108551;-75
2024/04/26 08:46:07;;;;;;;8.50;6.60;;;;;;;12.23;62.25;99714.80;130966;1253;106684;-75
2024/04/26 08:49:15;;;;;;;9.30;6.20;;;;;;;12.31;61.85;99717.16;130994;1251;108088;-75
2024/04/26 08:52:21;;;;;;;7.20;5.90;;;;;;;12.36;61.60;99703.91;131262;1253;108577;-75
2024/04/26 08:55:27;;;;;;;14.00;11.00;;;;;;;12.45;61.77;99712.02;131240;1250;108507;-75
2024/04/26 08:58:33;;;;;;;12.40;8.50;;;;;;;12.56;61.32;99714.80;131051;1253;108531;-75
2024/04/26 09:01:39;;;;;;;11.40;9.30;;;;;;;12.64;60.99;99711.60;130929;1253;106569;-74
2024/04/26 09:04:47;;;;;;;11.30;9.00;;;;;;;12.74;61.00;99711.11;131067;1253;108753;-75
2024/04/26 09:07:56;;;;;;;9.30;7.00;;;;;;;12.88;60.68;99706.44;131016;1254;108932;-75
2024/04/26 09:11:01;;;;;;;11.60;8.80;;;;;;;13.05;60.69;99703.45;130934;1253;107423;-74
2024/04/26 09:14:08;;;;;;;7.60;6.30;;;;;;;13.22;60.07;99706.71;131049;1253;107239;-75
2024/04/26 09:17:13;;;;;;;7.90;6.50;;;;;;;13.47;59.59;99696.70;131230;1250;106278;-75
2024/04/26 09:20:19;;;;;;;8.50;7.10;;;;;;;13.64;59.58;99697.17;131189;1250;108056;-76
2024/04/26 09:23:24;;;;;;;9.00;7.60;;;;;;;13.71;58.86;99696.31;131193;1253;108553;-75
2024/04/26 09:26:30;;;;;;;6.10;5.00;;;;;;;13.75;58.70;99699.61;130987;1250;109459;-75
2024/04/26 09:29:36;;;;;;;5.80;5.00;;;;;;;13.86;58.15;99696.86;131060;1251;106680;-78
2024/04/26 09:32:41;;;;;;;7.20;6.00;;;;;;;14.04;58.32;99693.23;131086;1253;108617;-75
2024/04/26 09:35:48;;;;;;;8.30;5.60;;;;;;;14.24;57.38;99690.95;130988;1253;108691;-75
2024/04/26 09:38:54;;;;;;;5.70;4.50;;;;;;;14.37;57.26;99693.31;130868;1253;107788;-75
2024/04/26 09:42:01;;;;;;;5.20;4.30;;;;;;;14.55;56.71;99692.48;131071;1253;107817;-75
2024/04/26 09:50:03;;;;;;;5.60;4.20;;;;;;;15.04;55.93;99682.72;131055;1253;112574;-75
2024/04/26 09:53:09;;;;;;;5.50;4.20;;;;;;;15.19;55.81;99679.41;131136;1251;107530;-75
2024/04/26 09:56:15;;;;;;;5.30;4.30;;;;;;;15.26;54.83;99681.33;130978;1253;107300;-75
2024/04/26 09:59:20;;;;;;;4.70;3.60;;;;;;;15.24;54.69;99682.50;131264;1253;107423;-75
2024/04/26 10:02:30;;;;;;;5.80;4.70;;;;;;;15.21;53.89;99678.90;130955;1251;108408;-76
2024/04/26 10:05:35;;;;;;;58.20;30.20;;;;;;;15.20;54.34;99687.15;131007;1253;106742;-76
2024/04/26 10:08:41;;;;;;;174.10;79.70;;;;;;;15.35;54.12;99685.09;130935;1251;108612;-75
2024/04/26 10:11:50;;;;;;;74.00;32.50;;;;;;;15.53;53.88;99686.56;130958;1251;107731;-75
2024/04/26 10:15:05;;;;;;;19.70;10.60;;;;;;;15.60;52.91;99683.83;130963;1251;106495;-75
2024/04/26 10:18:10;;;;;;;50.50;23.30;;;;;;;15.38;53.34;99692.17;130994;1253;106546;-76
2024/04/26 10:21:24;;;;;;;20.20;11.50;;;;;;;15.23;53.24;99689.41;130959;1253;108779;-75
2024/04/26 10:24:37;;;;;;;7.90;5.30;;;;;;;15.27;53.02;99686.77;130946;1253;107118;-76
2024/04/26 10:27:43;;;;;;;28.40;15.50;;;;;;;15.31;52.42;99682.88;131005;1253;108721;-75
2024/04/26 10:30:49;;;;;;;59.50;29.90;;;;;;;15.47;52.05;99685.13;131081;1253;107736;-75
2024/04/26 10:33:55;;;;;;;63.10;31.00;;;;;;;15.68;51.64;99685.22;131279;1253;106856;-77
2024/04/26 10:37:02;;;;;;;48.00;27.40;;;;;;;15.73;51.52;99684.67;131411;1253;107251;-75
2024/04/26 10:40:09;;;;;;;54.90;26.80;;;;;;;15.83;51.00;99684.85;131216;1253;108797;-75
2024/04/26 10:43:23;;;;;;;157.20;80.40;;;;;;;16.02;50.15;99688.48;131124;1256;106825;-75
2024/04/26 10:46:28;;;;;;;76.20;41.00;;;;;;;16.07;49.84;99690.64;131129;1250;108679;-77
2024/04/26 10:49:33;;;;;;;85.40;46.40;;;;;;;15.88;49.53;99686.10;131033;1254;107951;-75
2024/04/26 10:52:38;;;;;;;61.10;33.40;;;;;;;15.79;49.15;99683.02;130885;1256;106960;-75
2024/04/26 10:55:44;;;;;;;14.00;8.50;;;;;;;15.75;48.71;99676.64;130981;1254;107915;-76
2024/04/26 10:58:49;;;;;;;11.90;6.90;;;;;;;15.77;48.51;99676.44;131007;1253;106837;-75
2024/04/26 11:01:57;;;;;;;34.30;19.10;;;;;;;15.74;48.23;99679.64;131184;1253;107173;-75
2024/04/26 11:05:08;;;;;;;14.10;8.90;;;;;;;15.79;48.39;99678.46;131304;1253;107097;-76
2024/04/26 11:08:25;;;;;;;57.20;34.40;;;;;;;15.93;47.59;99681.04;131296;1253;108800;-75
2024/04/26 11:11:30;;;;;;;22.20;14.30;;;;;;;16.03;47.59;99682.85;131280;1251;107069;-75
2024/04/26 11:14:35;;;;;;;20.10;11.90;;;;;;;16.03;47.50;99689.02;131098;1253;107480;-75
2024/04/26 11:17:41;;;;;;;27.00;16.10;;;;;;;16.07;47.50;99690.39;131144;1253;108643;-75
2024/04/26 11:20:46;;;;;;;35.20;21.30;;;;;;;16.12;47.62;99689.95;131063;1253;107447;-74
2024/04/26 11:23:51;;;;;;;42.00;25.60;;;;;;;16.18;47.11;99696.17;131113;1253;108719;-75
2024/04/26 11:26:57;;;;;;;47.60;30.60;;;;;;;16.27;46.98;99697.48;131243;1251;108311;-75
2024/04/26 11:30:02;;;;;;;37.40;23.40;;;;;;;16.41;46.32;99694.65;131206;1255;108832;-75
2024/04/26 11:33:07;;;;;;;13.40;8.60;;;;;;;16.46;46.57;99692.46;131173;1251;108796;-75
2024/04/26 11:36:13;;;;;;;11.70;7.20;;;;;;;16.46;46.20;99692.84;130958;1251;108778;-75
2024/04/26 11:39:18;;;;;;;9.00;6.60;;;;;;;16.40;46.00;99702.73;131014;1256;108825;-75
2024/04/26 11:42:26;;;;;;;49.30;35.40;;;;;;;16.35;45.99;99702.10;131182;1250;107462;-75
2024/04/26 11:45:32;;;;;;;18.20;11.50;;;;;;;16.30;45.93;99705.61;131118;1253;108710;-75
2024/04/26 11:48:37;;;;;;;51.20;38.00;;;;;;;16.35;45.93;99706.48;131128;1253;108778;-75
2024/04/26 11:51:44;;;;;;;9.10;6.80;;;;;;;16.43;45.81;99703.89;131249;1251;108772;-75
2024/04/26 11:54:57;;;;;;;11.50;10.00;;;;;;;16.48;44.76;99707.97;131196;1251;108123;-75
2024/04/26 11:58:05;;;;;;;13.10;10.20;;;;;;;16.49;44.61;99705.94;130520;1262;108791;-76
2024/04/26 12:01:11;;;;;;;10.90;8.50;;;;;;;16.55;45.01;99704.20;130629;1256;107627;-75
2024/04/26 12:04:16;;;;;;;12.60;9.20;;;;;;;16.63;45.06;99705.83;130762;1254;106888;-74
2024/04/26 12:07:21;;;;;;;5.10;4.60;;;;;;;16.57;44.73;99708.30;130680;1254;106427;-74
2024/04/26 12:10:27;;;;;;;8.50;5.90;;;;;;;16.48;44.34;99708.50;130732;1256;108822;-75
2024/04/26 12:13:33;;;;;;;4.50;3.70;;;;;;;16.28;44.60;99713.35;130722;1256;108013;-74
2024/04/26 12:16:38;;;;;;;6.20;4.30;;;;;;;16.18;44.55;99713.25;130721;1257;106764;-75
2024/04/26 12:19:43;;;;;;;5.40;3.30;;;;;;;16.18;44.35;99709.39;130712;1253;106274;-75
2024/04/26 12:22:48;;;;;;;4.10;3.70;;;;;;;16.19;44.05;99712.16;130742;1268;106816;-74
2024/04/26 12:25:55;;;;;;;6.80;6.10;;;;;;;16.18;43.12;99709.80;130755;1256;108621;-74
2024/04/26 12:29:01;;;;;;;3.90;3.10;;;;;;;16.23;43.87;99711.64;130655;1250;107627;-74
2024/04/26 12:32:08;;;;;;;6.10;3.90;;;;;;;16.45;43.02;99710.24;131015;1255;105832;-75
2024/04/26 12:35:13;;;;;;;4.60;3.30;;;;;;;16.53;43.04;99712.65;131095;1256;106612;-75
2024/04/26 12:38:18;;;;;;;4.70;3.60;;;;;;;16.55;43.02;99706.45;130960;1256;106990;-75
2024/04/26 12:41:23;;;;;;;4.20;3.00;;;;;;;16.61;42.52;99706.02;131144;1256;106791;-74
2024/04/26 12:44:28;;;;;;;4.70;2.60;;;;;;;16.68;42.60;99708.35;131303;1251;107874;-74
2024/04/26 12:47:33;;;;;;;86.70;47.10;;;;;;;16.68;41.38;99710.30;131143;1253;108655;-75
2024/04/26 12:50:39;;;;;;;57.40;31.50;;;;;;;16.57;41.80;99705.89;131188;1253;107278;-76
2024/04/26 12:53:44;;;;;;;113.80;53.40;;;;;;;16.66;42.19;99710.75;131236;1254;107658;-75
2024/04/26 12:56:49;;;;;;;101.70;41.70;;;;;;;16.73;42.34;99714.70;130815;1250;107786;-75
2024/04/26 12:59:54;;;;;;;248.40;103.90;;;;;;;16.77;42.14;99713.75;131052;1253;201686;-75
2024/04/26 13:02:59;;;;;;;220.20;97.70;;;;;;;16.77;41.65;99718.60;131186;1253;109068;-75
2024/04/26 13:06:06;;;;;;;104.90;45.20;;;;;;;16.78;41.77;99720.13;130911;1265;107880;-75
2024/04/26 13:09:11;;;;;;;182.00;78.70;;;;;;;16.80;41.75;99719.64;130891;1257;108044;-75
2024/04/26 13:12:16;;;;;;;66.70;29.40;;;;;;;16.78;41.68;99716.44;130989;1253;107544;-75
2024/04/26 13:15:21;;;;;;;149.80;64.80;;;;;;;16.78;41.09;99719.67;131057;1253;106822;-75
2024/04/26 13:18:26;;;;;;;188.90;67.40;;;;;;;16.80;41.05;99717.08;131048;1254;106824;-75
2024/04/26 13:21:32;;;;;;;156.20;61.20;;;;;;;16.91;41.47;99711.33;131095;1254;106807;-75
2024/04/26 13:24:37;;;;;;;157.90;70.00;;;;;;;17.01;40.90;99712.11;131231;1253;106670;-75
2024/04/26 13:27:42;;;;;;;55.40;24.20;;;;;;;16.99;40.04;99713.81;131316;1253;106570;-75
2024/04/26 13:30:49;;;;;;;62.50;32.20;;;;;;;16.97;40.74;99715.02;131079;1253;106860;-75
2024/04/26 13:33:54;;;;;;;52.60;25.70;;;;;;;16.94;40.52;99713.29;131220;1253;106543;-75
2024/04/26 13:36:59;;;;;;;71.50;36.80;;;;;;;16.91;39.61;99709.51;130984;1254;108485;-75
2024/04/26 13:40:06;;;;;;;123.30;64.60;;;;;;;16.74;40.42;99708.39;131193;1253;108692;-75
2024/04/26 13:43:11;;;;;;;56.70;30.20;;;;;;;16.62;40.62;99710.42;131243;1253;106548;-75
2024/04/26 13:46:16;;;;;;;18.60;10.10;;;;;;;16.61;40.67;99704.98;131200;1253;106963;-75
2024/04/26 13:49:22;;;;;;;29.70;17.20;;;;;;;16.67;40.27;99704.70;130956;1253;108787;-75
2024/04/26 13:52:27;;;;;;;95.10;56.10;;;;;;;16.61;40.28;99706.48;131230;1253;107902;-75
2024/04/26 13:55:32;;;;;;;65.80;37.90;;;;;;;16.53;40.40;99705.65;131141;1253;107016;-75
2024/04/26 13:58:38;;;;;;;43.10;22.40;;;;;;;16.57;40.61;99697.65;131267;1251;108431;-75
2024/04/26 14:01:44;;;;;;;114.40;61.30;;;;;;;16.66;39.67;99698.49;131215;1253;107633;-75
2024/04/26 14:04:49;;;;;;;70.70;40.60;;;;;;;16.65;39.45;99696.29;131263;1253;107198;-75
2024/04/26 14:07:54;;;;;;;138.00;67.90;;;;;;;16.66;39.59;99695.42;130980;1256;107737;-75